sensor_id;sensor_type;location;lat;lon;timestamp;P1;durP1;ratioP1;P2;durP2;ratioP2
48207;SDS011;33997;53.278;9.708;2023-08-01T00:00:28;4.10;;;2.10;;
48207;SDS011;33997;53.278;9.708;2023-08-01T00:02:54;4.18;;;2.40;;
48207;SDS011;33997;53.278;9.708;2023-08-01T00:05:19;4.65;;;2.83;;
48207;SDS011;33997;53.278;9.708;2023-08-01T00:07:45;5.07;;;2.70;;
48207;SDS011;33997;53.278;9.708;2023-08-01T00:10:10;8.25;;;3.33;;
48207;SDS011;33997;53.278;9.708;2023-08-01T00:12:36;7.53;;;3.50;;
48207;SDS011;33997;53.278;9.708;2023-08-01T00:15:01;6.85;;;3.50;;
48207;SDS011;33997;53.278;9.708;2023-08-01T00:17:28;6.25;;;3.63;;
48207;SDS011;33997;53.278;9.708;2023-08-01T00:19:53;7.60;;;3.45;;
48207;SDS011;33997;53.278;9.708;2023-08-01T00:22:20;7.38;;;3.97;;
48207;SDS011;33997;53.278;9.708;2023-08-01T00:24:45;9.30;;;4.45;;
48207;SDS011;33997;53.278;9.708;2023-08-01T00:27:12;9.48;;;4.85;;
48207;SDS011;33997;53.278;9.708;2023-08-01T00:29:38;9.38;;;5.20;;
48207;SDS011;33997;53.278;9.708;2023-08-01T00:32:04;10.18;;;5.82;;
48207;SDS011;33997;53.278;9.708;2023-08-01T00:34:30;10.30;;;5.80;;
48207;SDS011;33997;53.278;9.708;2023-08-01T00:36:56;13.80;;;6.07;;
48207;SDS011;33997;53.278;9.708;2023-08-01T00:39:21;11.90;;;6.53;;
48207;SDS011;33997;53.278;9.708;2023-08-01T00:41:47;14.70;;;7.35;;
48207;SDS011;33997;53.278;9.708;2023-08-01T00:44:12;13.40;;;7.45;;
48207;SDS011;33997;53.278;9.708;2023-08-01T00:46:38;14.02;;;6.82;;
48207;SDS011;33997;53.278;9.708;2023-08-01T00:49:03;13.55;;;7.43;;
48207;SDS011;33997;53.278;9.708;2023-08-01T00:51:29;15.38;;;8.50;;
48207;SDS011;33997;53.278;9.708;2023-08-01T00:53:56;17.20;;;8.07;;
48207;SDS011;33997;53.278;9.708;2023-08-01T00:56:22;17.50;;;8.65;;
48207;SDS011;33997;53.278;9.708;2023-08-01T00:58:48;17.55;;;9.25;;
48207;SDS011;33997;53.278;9.708;2023-08-01T01:01:13;19.63;;;9.52;;
48207;SDS011;33997;53.278;9.708;2023-08-01T01:03:39;15.35;;;9.50;;
48207;SDS011;33997;53.278;9.708;2023-08-01T01:06:20;21.20;;;9.65;;
48207;SDS011;33997;53.278;9.708;2023-08-01T01:08:59;22.80;;;10.35;;
48207;SDS011;33997;53.278;9.708;2023-08-01T01:11:24;19.70;;;11.20;;
48207;SDS011;33997;53.278;9.708;2023-08-01T01:13:50;19.13;;;10.77;;
48207;SDS011;33997;53.278;9.708;2023-08-01T01:16:18;23.25;;;11.77;;
48207;SDS011;33997;53.278;9.708;2023-08-01T01:18:44;24.10;;;11.73;;
48207;SDS011;33997;53.278;9.708;2023-08-01T01:21:10;22.65;;;12.77;;
48207;SDS011;33997;53.278;9.708;2023-08-01T01:23:35;24.30;;;12.68;;
48207;SDS011;33997;53.278;9.708;2023-08-01T01:26:02;23.98;;;11.98;;
48207;SDS011;33997;53.278;9.708;2023-08-01T01:28:29;23.65;;;12.30;;
48207;SDS011;33997;53.278;9.708;2023-08-01T01:30:55;25.27;;;12.15;;
48207;SDS011;33997;53.278;9.708;2023-08-01T01:33:22;23.42;;;12.13;;
48207;SDS011;33997;53.278;9.708;2023-08-01T01:35:48;23.48;;;12.95;;
48207;SDS011;33997;53.278;9.708;2023-08-01T01:38:13;24.80;;;12.60;;
48207;SDS011;33997;53.278;9.708;2023-08-01T01:40:39;21.60;;;12.57;;
48207;SDS011;33997;53.278;9.708;2023-08-01T01:43:04;24.60;;;12.65;;
48207;SDS011;33997;53.278;9.708;2023-08-01T01:45:30;23.75;;;12.35;;
48207;SDS011;33997;53.278;9.708;2023-08-01T01:47:55;26.77;;;13.25;;
48207;SDS011;33997;53.278;9.708;2023-08-01T01:50:21;26.42;;;13.38;;
48207;SDS011;33997;53.278;9.708;2023-08-01T01:52:46;23.90;;;13.57;;
48207;SDS011;33997;53.278;9.708;2023-08-01T01:55:12;24.58;;;13.45;;
48207;SDS011;33997;53.278;9.708;2023-08-01T01:57:37;26.45;;;14.23;;
48207;SDS011;33997;53.278;9.708;2023-08-01T02:00:06;27.55;;;13.85;;
48207;SDS011;33997;53.278;9.708;2023-08-01T02:02:35;24.08;;;13.90;;
48207;SDS011;33997;53.278;9.708;2023-08-01T02:05:01;29.75;;;15.77;;
48207;SDS011;33997;53.278;9.708;2023-08-01T02:07:26;30.50;;;14.68;;
48207;SDS011;33997;53.278;9.708;2023-08-01T02:09:51;24.95;;;14.68;;
48207;SDS011;33997;53.278;9.708;2023-08-01T02:12:17;28.90;;;14.75;;
48207;SDS011;33997;53.278;9.708;2023-08-01T02:14:42;24.67;;;14.50;;
48207;SDS011;33997;53.278;9.708;2023-08-01T02:17:08;34.05;;;16.13;;
48207;SDS011;33997;53.278;9.708;2023-08-01T02:19:33;30.45;;;16.42;;
48207;SDS011;33997;53.278;9.708;2023-08-01T02:21:59;30.55;;;15.32;;
48207;SDS011;33997;53.278;9.708;2023-08-01T02:24:24;28.15;;;15.52;;
48207;SDS011;33997;53.278;9.708;2023-08-01T02:26:50;28.70;;;15.07;;
48207;SDS011;33997;53.278;9.708;2023-08-01T02:29:16;26.60;;;14.68;;
48207;SDS011;33997;53.278;9.708;2023-08-01T02:31:41;29.73;;;15.45;;
48207;SDS011;33997;53.278;9.708;2023-08-01T02:34:07;27.23;;;14.65;;
48207;SDS011;33997;53.278;9.708;2023-08-01T02:36:32;28.92;;;14.38;;
48207;SDS011;33997;53.278;9.708;2023-08-01T02:38:58;27.33;;;15.02;;
48207;SDS011;33997;53.278;9.708;2023-08-01T02:41:23;32.60;;;14.80;;
48207;SDS011;33997;53.278;9.708;2023-08-01T02:43:49;28.65;;;16.27;;
48207;SDS011;33997;53.278;9.708;2023-08-01T02:46:14;30.23;;;14.65;;
48207;SDS011;33997;53.278;9.708;2023-08-01T02:48:39;27.35;;;14.25;;
48207;SDS011;33997;53.278;9.708;2023-08-01T02:51:05;30.85;;;15.27;;
48207;SDS011;33997;53.278;9.708;2023-08-01T02:53:34;28.33;;;13.77;;
48207;SDS011;33997;53.278;9.708;2023-08-01T02:56:00;32.30;;;15.82;;
48207;SDS011;33997;53.278;9.708;2023-08-01T02:58:25;29.77;;;15.27;;
48207;SDS011;33997;53.278;9.708;2023-08-01T03:00:51;29.80;;;14.30;;
48207;SDS011;33997;53.278;9.708;2023-08-01T03:03:16;28.00;;;15.07;;
48207;SDS011;33997;53.278;9.708;2023-08-01T03:05:41;27.20;;;14.45;;
48207;SDS011;33997;53.278;9.708;2023-08-01T03:08:07;28.00;;;14.75;;
48207;SDS011;33997;53.278;9.708;2023-08-01T03:10:32;28.40;;;14.52;;
48207;SDS011;33997;53.278;9.708;2023-08-01T03:12:58;25.88;;;14.05;;
48207;SDS011;33997;53.278;9.708;2023-08-01T03:15:23;26.55;;;13.98;;
48207;SDS011;33997;53.278;9.708;2023-08-01T03:17:49;26.45;;;13.57;;
48207;SDS011;33997;53.278;9.708;2023-08-01T03:20:14;23.90;;;13.88;;
48207;SDS011;33997;53.278;9.708;2023-08-01T03:22:40;23.67;;;12.77;;
48207;SDS011;33997;53.278;9.708;2023-08-01T03:25:06;19.95;;;12.43;;
48207;SDS011;33997;53.278;9.708;2023-08-01T03:27:35;24.50;;;13.35;;
48207;SDS011;33997;53.278;9.708;2023-08-01T03:30:01;24.05;;;12.15;;
48207;SDS011;33997;53.278;9.708;2023-08-01T03:32:27;25.98;;;12.60;;
48207;SDS011;33997;53.278;9.708;2023-08-01T03:34:53;25.35;;;12.82;;
48207;SDS011;33997;53.278;9.708;2023-08-01T03:37:18;22.50;;;11.75;;
48207;SDS011;33997;53.278;9.708;2023-08-01T03:39:44;19.92;;;12.32;;
48207;SDS011;33997;53.278;9.708;2023-08-01T03:42:10;25.33;;;12.68;;
48207;SDS011;33997;53.278;9.708;2023-08-01T03:44:35;18.25;;;11.07;;
48207;SDS011;33997;53.278;9.708;2023-08-01T03:47:01;21.00;;;12.05;;
48207;SDS011;33997;53.278;9.708;2023-08-01T03:49:26;20.98;;;12.95;;
48207;SDS011;33997;53.278;9.708;2023-08-01T03:51:52;23.17;;;12.88;;
48207;SDS011;33997;53.278;9.708;2023-08-01T03:54:17;24.60;;;12.77;;
48207;SDS011;33997;53.278;9.708;2023-08-01T03:56:43;23.30;;;12.52;;
48207;SDS011;33997;53.278;9.708;2023-08-01T03:59:12;21.80;;;12.43;;
48207;SDS011;33997;53.278;9.708;2023-08-01T04:01:39;24.48;;;12.20;;
48207;SDS011;33997;53.278;9.708;2023-08-01T04:04:04;23.17;;;12.98;;
48207;SDS011;33997;53.278;9.708;2023-08-01T04:06:30;22.50;;;12.15;;
48207;SDS011;33997;53.278;9.708;2023-08-01T04:08:55;26.65;;;11.68;;
48207;SDS011;33997;53.278;9.708;2023-08-01T04:11:21;19.73;;;11.27;;
48207;SDS011;33997;53.278;9.708;2023-08-01T04:13:47;19.00;;;11.82;;
48207;SDS011;33997;53.278;9.708;2023-08-01T04:16:13;24.75;;;13.02;;
48207;SDS011;33997;53.278;9.708;2023-08-01T04:18:38;23.13;;;12.07;;
48207;SDS011;33997;53.278;9.708;2023-08-01T04:21:04;24.55;;;12.77;;
48207;SDS011;33997;53.278;9.708;2023-08-01T04:23:29;23.40;;;13.43;;
48207;SDS011;33997;53.278;9.708;2023-08-01T04:25:54;20.40;;;11.90;;
48207;SDS011;33997;53.278;9.708;2023-08-01T04:28:20;19.80;;;12.77;;
48207;SDS011;33997;53.278;9.708;2023-08-01T04:30:49;22.83;;;11.23;;
48207;SDS011;33997;53.278;9.708;2023-08-01T04:33:15;23.45;;;12.27;;
48207;SDS011;33997;53.278;9.708;2023-08-01T04:35:40;19.20;;;12.10;;
48207;SDS011;33997;53.278;9.708;2023-08-01T04:38:06;23.58;;;12.00;;
48207;SDS011;33997;53.278;9.708;2023-08-01T04:40:33;18.40;;;12.23;;
48207;SDS011;33997;53.278;9.708;2023-08-01T04:42:59;29.48;;;12.93;;
48207;SDS011;33997;53.278;9.708;2023-08-01T04:45:26;21.80;;;12.48;;
48207;SDS011;33997;53.278;9.708;2023-08-01T04:47:51;26.55;;;13.48;;
48207;SDS011;33997;53.278;9.708;2023-08-01T04:50:17;22.02;;;12.52;;
48207;SDS011;33997;53.278;9.708;2023-08-01T04:52:42;24.17;;;12.55;;
48207;SDS011;33997;53.278;9.708;2023-08-01T04:55:08;25.63;;;13.93;;
48207;SDS011;33997;53.278;9.708;2023-08-01T04:57:33;25.77;;;13.90;;
48207;SDS011;33997;53.278;9.708;2023-08-01T04:59:59;27.65;;;13.90;;
48207;SDS011;33997;53.278;9.708;2023-08-01T05:02:24;26.58;;;14.05;;
48207;SDS011;33997;53.278;9.708;2023-08-01T05:04:50;25.58;;;13.82;;
48207;SDS011;33997;53.278;9.708;2023-08-01T05:07:16;26.85;;;13.23;;
48207;SDS011;33997;53.278;9.708;2023-08-01T05:09:41;28.75;;;13.85;;
48207;SDS011;33997;53.278;9.708;2023-08-01T05:12:07;28.92;;;14.48;;
48207;SDS011;33997;53.278;9.708;2023-08-01T05:14:34;22.80;;;12.63;;
48207;SDS011;33997;53.278;9.708;2023-08-01T05:16:59;20.80;;;11.20;;
48207;SDS011;33997;53.278;9.708;2023-08-01T05:19:25;22.73;;;11.38;;
48207;SDS011;33997;53.278;9.708;2023-08-01T05:21:50;23.88;;;9.85;;
48207;SDS011;33997;53.278;9.708;2023-08-01T05:24:16;24.42;;;10.35;;
48207;SDS011;33997;53.278;9.708;2023-08-01T05:26:41;20.60;;;8.93;;
48207;SDS011;33997;53.278;9.708;2023-08-01T05:29:07;13.27;;;7.80;;
48207;SDS011;33997;53.278;9.708;2023-08-01T05:31:32;14.50;;;7.63;;
48207;SDS011;33997;53.278;9.708;2023-08-01T05:33:58;14.35;;;7.40;;
48207;SDS011;33997;53.278;9.708;2023-08-01T05:36:23;12.73;;;6.95;;
48207;SDS011;33997;53.278;9.708;2023-08-01T05:38:49;15.27;;;7.47;;
48207;SDS011;33997;53.278;9.708;2023-08-01T05:41:14;17.65;;;7.65;;
48207;SDS011;33997;53.278;9.708;2023-08-01T05:43:39;14.23;;;6.90;;
48207;SDS011;33997;53.278;9.708;2023-08-01T05:46:05;15.88;;;7.97;;
48207;SDS011;33997;53.278;9.708;2023-08-01T05:48:31;18.58;;;8.57;;
48207;SDS011;33997;53.278;9.708;2023-08-01T05:50:56;19.08;;;9.85;;
48207;SDS011;33997;53.278;9.708;2023-08-01T05:53:23;21.42;;;10.73;;
48207;SDS011;33997;53.278;9.708;2023-08-01T05:55:48;20.80;;;11.85;;
48207;SDS011;33997;53.278;9.708;2023-08-01T05:58:14;23.40;;;12.15;;
48207;SDS011;33997;53.278;9.708;2023-08-01T06:00:40;27.73;;;12.85;;
48207;SDS011;33997;53.278;9.708;2023-08-01T06:03:05;30.75;;;15.20;;
48207;SDS011;33997;53.278;9.708;2023-08-01T06:05:31;29.60;;;16.15;;
48207;SDS011;33997;53.278;9.708;2023-08-01T06:07:56;33.50;;;16.48;;
48207;SDS011;33997;53.278;9.708;2023-08-01T06:10:22;20.55;;;11.10;;
48207;SDS011;33997;53.278;9.708;2023-08-01T06:12:47;12.45;;;7.18;;
48207;SDS011;33997;53.278;9.708;2023-08-01T06:15:13;10.48;;;5.45;;
48207;SDS011;33997;53.278;9.708;2023-08-01T06:17:38;12.90;;;4.47;;
48207;SDS011;33997;53.278;9.708;2023-08-01T06:20:04;6.95;;;3.78;;
48207;SDS011;33997;53.278;9.708;2023-08-01T06:22:30;12.98;;;4.68;;
48207;SDS011;33997;53.278;9.708;2023-08-01T06:24:55;10.50;;;4.70;;
48207;SDS011;33997;53.278;9.708;2023-08-01T06:27:21;11.45;;;6.05;;
48207;SDS011;33997;53.278;9.708;2023-08-01T06:29:46;12.10;;;6.65;;
48207;SDS011;33997;53.278;9.708;2023-08-01T06:32:12;9.70;;;5.80;;
48207;SDS011;33997;53.278;9.708;2023-08-01T06:34:37;11.07;;;5.82;;
48207;SDS011;33997;53.278;9.708;2023-08-01T06:37:03;10.82;;;4.70;;
48207;SDS011;33997;53.278;9.708;2023-08-01T06:39:29;10.15;;;4.40;;
48207;SDS011;33997;53.278;9.708;2023-08-01T06:41:54;7.35;;;4.35;;
48207;SDS011;33997;53.278;9.708;2023-08-01T06:44:20;8.35;;;4.55;;
48207;SDS011;33997;53.278;9.708;2023-08-01T06:46:46;8.30;;;4.43;;
48207;SDS011;33997;53.278;9.708;2023-08-01T06:49:11;13.15;;;4.15;;
48207;SDS011;33997;53.278;9.708;2023-08-01T06:51:36;9.75;;;4.20;;
48207;SDS011;33997;53.278;9.708;2023-08-01T06:54:02;10.45;;;3.97;;
48207;SDS011;33997;53.278;9.708;2023-08-01T06:56:27;10.57;;;4.43;;
48207;SDS011;33997;53.278;9.708;2023-08-01T06:58:53;8.00;;;3.38;;
48207;SDS011;33997;53.278;9.708;2023-08-01T07:01:18;14.98;;;3.92;;
48207;SDS011;33997;53.278;9.708;2023-08-01T07:03:44;8.77;;;3.42;;
48207;SDS011;33997;53.278;9.708;2023-08-01T07:06:10;7.28;;;3.80;;
48207;SDS011;33997;53.278;9.708;2023-08-01T07:08:36;9.68;;;3.67;;
48207;SDS011;33997;53.278;9.708;2023-08-01T07:11:01;9.70;;;3.42;;
48207;SDS011;33997;53.278;9.708;2023-08-01T07:13:28;7.60;;;3.88;;
48207;SDS011;33997;53.278;9.708;2023-08-01T07:15:53;10.68;;;4.03;;
48207;SDS011;33997;53.278;9.708;2023-08-01T07:18:19;8.43;;;3.67;;
48207;SDS011;33997;53.278;9.708;2023-08-01T07:20:45;11.77;;;4.35;;
48207;SDS011;33997;53.278;9.708;2023-08-01T07:23:10;11.00;;;4.13;;
48207;SDS011;33997;53.278;9.708;2023-08-01T07:25:35;12.95;;;4.68;;
48207;SDS011;33997;53.278;9.708;2023-08-01T07:28:01;8.60;;;4.63;;
48207;SDS011;33997;53.278;9.708;2023-08-01T07:30:27;11.40;;;5.43;;
48207;SDS011;33997;53.278;9.708;2023-08-01T07:32:53;12.05;;;5.50;;
48207;SDS011;33997;53.278;9.708;2023-08-01T07:35:18;14.10;;;5.18;;
48207;SDS011;33997;53.278;9.708;2023-08-01T07:37:44;12.40;;;6.60;;
48207;SDS011;33997;53.278;9.708;2023-08-01T07:40:09;15.98;;;8.00;;
48207;SDS011;33997;53.278;9.708;2023-08-01T07:42:35;13.75;;;7.75;;
48207;SDS011;33997;53.278;9.708;2023-08-01T07:45:00;15.32;;;7.22;;
48207;SDS011;33997;53.278;9.708;2023-08-01T07:47:26;14.00;;;7.47;;
48207;SDS011;33997;53.278;9.708;2023-08-01T07:49:51;19.25;;;7.82;;
48207;SDS011;33997;53.278;9.708;2023-08-01T07:52:17;14.90;;;7.25;;
48207;SDS011;33997;53.278;9.708;2023-08-01T07:54:43;14.70;;;7.57;;
48207;SDS011;33997;53.278;9.708;2023-08-01T07:57:08;14.10;;;7.10;;
48207;SDS011;33997;53.278;9.708;2023-08-01T07:59:34;12.70;;;6.47;;
48207;SDS011;33997;53.278;9.708;2023-08-01T08:01:59;10.95;;;6.60;;
48207;SDS011;33997;53.278;9.708;2023-08-01T08:04:25;14.38;;;6.45;;
48207;SDS011;33997;53.278;9.708;2023-08-01T08:06:50;8.35;;;5.45;;
48207;SDS011;33997;53.278;9.708;2023-08-01T08:09:17;12.18;;;5.82;;
48207;SDS011;33997;53.278;9.708;2023-08-01T08:11:42;11.00;;;5.72;;
48207;SDS011;33997;53.278;9.708;2023-08-01T08:14:08;11.95;;;5.00;;
48207;SDS011;33997;53.278;9.708;2023-08-01T08:16:33;9.30;;;4.25;;
48207;SDS011;33997;53.278;9.708;2023-08-01T08:18:59;7.07;;;4.10;;
48207;SDS011;33997;53.278;9.708;2023-08-01T08:21:24;8.70;;;3.88;;
48207;SDS011;33997;53.278;9.708;2023-08-01T08:23:50;8.40;;;4.35;;
48207;SDS011;33997;53.278;9.708;2023-08-01T08:26:15;11.43;;;4.53;;
48207;SDS011;33997;53.278;9.708;2023-08-01T08:28:41;7.72;;;3.78;;
48207;SDS011;33997;53.278;9.708;2023-08-01T08:31:07;7.80;;;3.15;;
48207;SDS011;33997;53.278;9.708;2023-08-01T08:33:33;11.02;;;4.13;;
48207;SDS011;33997;53.278;9.708;2023-08-01T08:35:58;9.13;;;4.30;;
48207;SDS011;33997;53.278;9.708;2023-08-01T08:38:24;9.60;;;1.98;;
48207;SDS011;33997;53.278;9.708;2023-08-01T08:41:01;3.33;;;1.38;;
48207;SDS011;33997;53.278;9.708;2023-08-01T08:43:34;4.22;;;1.92;;
48207;SDS011;33997;53.278;9.708;2023-08-01T08:46:00;4.50;;;2.40;;
48207;SDS011;33997;53.278;9.708;2023-08-01T08:48:27;9.80;;;2.88;;
48207;SDS011;33997;53.278;9.708;2023-08-01T08:50:54;7.97;;;3.33;;
48207;SDS011;33997;53.278;9.708;2023-08-01T08:53:22;5.35;;;3.42;;
48207;SDS011;33997;53.278;9.708;2023-08-01T08:55:48;9.02;;;3.85;;
48207;SDS011;33997;53.278;9.708;2023-08-01T08:58:13;8.50;;;4.60;;
48207;SDS011;33997;53.278;9.708;2023-08-01T09:00:40;7.22;;;4.38;;
48207;SDS011;33997;53.278;9.708;2023-08-01T09:03:06;8.57;;;4.20;;
48207;SDS011;33997;53.278;9.708;2023-08-01T09:05:40;8.57;;;4.60;;
48207;SDS011;33997;53.278;9.708;2023-08-01T09:08:16;8.10;;;4.78;;
48207;SDS011;33997;53.278;9.708;2023-08-01T09:10:47;7.35;;;3.95;;
48207;SDS011;33997;53.278;9.708;2023-08-01T09:13:13;9.20;;;4.05;;
48207;SDS011;33997;53.278;9.708;2023-08-01T09:15:39;7.15;;;3.10;;
48207;SDS011;33997;53.278;9.708;2023-08-01T09:18:07;5.30;;;3.40;;
48207;SDS011;33997;53.278;9.708;2023-08-01T09:20:39;5.72;;;3.08;;
48207;SDS011;33997;53.278;9.708;2023-08-01T09:23:11;7.43;;;3.20;;
48207;SDS011;33997;53.278;9.708;2023-08-01T09:25:37;4.93;;;3.00;;
48207;SDS011;33997;53.278;9.708;2023-08-01T09:28:03;4.35;;;2.30;;
48207;SDS011;33997;53.278;9.708;2023-08-01T09:30:50;7.90;;;2.03;;
48207;SDS011;33997;53.278;9.708;2023-08-01T09:33:17;3.15;;;1.85;;
48207;SDS011;33997;53.278;9.708;2023-08-01T09:35:43;5.50;;;1.70;;
48207;SDS011;33997;53.278;9.708;2023-08-01T09:38:12;3.35;;;1.70;;
48207;SDS011;33997;53.278;9.708;2023-08-01T09:40:39;4.35;;;1.58;;
48207;SDS011;33997;53.278;9.708;2023-08-01T09:43:05;3.38;;;1.50;;
48207;SDS011;33997;53.278;9.708;2023-08-01T09:45:30;6.93;;;1.65;;
48207;SDS011;33997;53.278;9.708;2023-08-01T09:47:56;4.75;;;1.73;;
48207;SDS011;33997;53.278;9.708;2023-08-01T09:50:22;4.85;;;1.75;;
48207;SDS011;33997;53.278;9.708;2023-08-01T09:52:49;4.22;;;1.60;;
48207;SDS011;33997;53.278;9.708;2023-08-01T09:55:31;8.00;;;2.00;;
48207;SDS011;33997;53.278;9.708;2023-08-01T09:57:57;8.20;;;2.22;;
48207;SDS011;33997;53.278;9.708;2023-08-01T10:00:28;6.63;;;2.35;;
48207;SDS011;33997;53.278;9.708;2023-08-01T10:02:58;5.85;;;1.95;;
48207;SDS011;33997;53.278;9.708;2023-08-01T10:05:31;3.67;;;1.60;;
48207;SDS011;33997;53.278;9.708;2023-08-01T10:08:01;5.75;;;1.85;;
48207;SDS011;33997;53.278;9.708;2023-08-01T10:10:28;3.88;;;1.33;;
48207;SDS011;33997;53.278;9.708;2023-08-01T10:12:54;4.60;;;1.70;;
48207;SDS011;33997;53.278;9.708;2023-08-01T10:15:21;2.28;;;1.30;;
48207;SDS011;33997;53.278;9.708;2023-08-01T10:17:49;6.20;;;1.70;;
48207;SDS011;33997;53.278;9.708;2023-08-01T10:20:14;3.60;;;1.38;;
48207;SDS011;33997;53.278;9.708;2023-08-01T10:22:41;5.32;;;1.58;;
48207;SDS011;33997;53.278;9.708;2023-08-01T10:25:08;5.22;;;1.65;;
48207;SDS011;33997;53.278;9.708;2023-08-01T10:27:35;4.30;;;1.40;;
48207;SDS011;33997;53.278;9.708;2023-08-01T10:30:02;2.95;;;1.20;;
48207;SDS011;33997;53.278;9.708;2023-08-01T10:32:32;3.53;;;1.20;;
48207;SDS011;33997;53.278;9.708;2023-08-01T10:35:02;2.42;;;1.10;;
48207;SDS011;33997;53.278;9.708;2023-08-01T10:37:38;2.55;;;1.08;;
48207;SDS011;33997;53.278;9.708;2023-08-01T10:40:05;3.00;;;1.08;;
48207;SDS011;33997;53.278;9.708;2023-08-01T10:42:38;1.50;;;0.88;;
48207;SDS011;33997;53.278;9.708;2023-08-01T10:45:07;2.08;;;0.88;;
48207;SDS011;33997;53.278;9.708;2023-08-01T10:47:45;3.25;;;1.00;;
48207;SDS011;33997;53.278;9.708;2023-08-01T10:50:14;2.85;;;1.00;;
48207;SDS011;33997;53.278;9.708;2023-08-01T10:52:40;3.53;;;0.80;;
48207;SDS011;33997;53.278;9.708;2023-08-01T10:55:06;1.50;;;0.68;;
48207;SDS011;33997;53.278;9.708;2023-08-01T10:57:34;1.67;;;0.80;;
48207;SDS011;33997;53.278;9.708;2023-08-01T11:00:00;2.95;;;0.90;;
48207;SDS011;33997;53.278;9.708;2023-08-01T11:02:28;3.60;;;0.70;;
48207;SDS011;33997;53.278;9.708;2023-08-01T11:05:02;1.10;;;0.60;;
48207;SDS011;33997;53.278;9.708;2023-08-01T11:07:32;3.58;;;0.57;;
48207;SDS011;33997;53.278;9.708;2023-08-01T11:10:08;2.88;;;0.80;;
48207;SDS011;33997;53.278;9.708;2023-08-01T11:12:38;1.90;;;0.80;;
48207;SDS011;33997;53.278;9.708;2023-08-01T11:15:09;2.55;;;0.85;;
48207;SDS011;33997;53.278;9.708;2023-08-01T11:17:42;5.85;;;1.10;;
48207;SDS011;33997;53.278;9.708;2023-08-01T11:20:11;3.30;;;0.93;;
48207;SDS011;33997;53.278;9.708;2023-08-01T11:22:49;2.50;;;1.20;;
48207;SDS011;33997;53.278;9.708;2023-08-01T11:25:16;3.95;;;1.20;;
48207;SDS011;33997;53.278;9.708;2023-08-01T11:27:41;2.35;;;1.00;;
48207;SDS011;33997;53.278;9.708;2023-08-01T11:30:07;3.03;;;1.15;;
48207;SDS011;33997;53.278;9.708;2023-08-01T11:32:34;2.08;;;0.80;;
48207;SDS011;33997;53.278;9.708;2023-08-01T11:35:01;3.88;;;1.13;;
48207;SDS011;33997;53.278;9.708;2023-08-01T11:37:27;4.28;;;1.10;;
48207;SDS011;33997;53.278;9.708;2023-08-01T11:39:53;3.28;;;1.20;;
48207;SDS011;33997;53.278;9.708;2023-08-01T11:42:19;2.42;;;1.08;;
48207;SDS011;33997;53.278;9.708;2023-08-01T11:44:45;2.90;;;1.10;;
48207;SDS011;33997;53.278;9.708;2023-08-01T11:47:11;4.05;;;1.00;;
48207;SDS011;33997;53.278;9.708;2023-08-01T11:49:48;2.65;;;0.90;;
48207;SDS011;33997;53.278;9.708;2023-08-01T11:54:50;1.67;;;0.80;;
48207;SDS011;33997;53.278;9.708;2023-08-01T11:57:15;4.57;;;1.20;;
48207;SDS011;33997;53.278;9.708;2023-08-01T11:59:48;2.08;;;1.10;;
48207;SDS011;33997;53.278;9.708;2023-08-01T12:02:21;3.63;;;1.10;;
48207;SDS011;33997;53.278;9.708;2023-08-01T12:04:47;1.98;;;0.85;;
48207;SDS011;33997;53.278;9.708;2023-08-01T12:07:13;3.10;;;1.08;;
48207;SDS011;33997;53.278;9.708;2023-08-01T12:09:40;3.55;;;1.35;;
48207;SDS011;33997;53.278;9.708;2023-08-01T12:12:05;3.08;;;1.00;;
48207;SDS011;33997;53.278;9.708;2023-08-01T12:14:31;2.03;;;1.08;;
48207;SDS011;33997;53.278;9.708;2023-08-01T12:16:57;5.22;;;1.00;;
48207;SDS011;33997;53.278;9.708;2023-08-01T12:19:22;1.38;;;0.90;;
48207;SDS011;33997;53.278;9.708;2023-08-01T12:21:48;3.15;;;0.82;;
48207;SDS011;33997;53.278;9.708;2023-08-01T12:24:13;1.60;;;0.70;;
48207;SDS011;33997;53.278;9.708;2023-08-01T12:26:39;2.45;;;0.75;;
48207;SDS011;33997;53.278;9.708;2023-08-01T12:29:05;2.13;;;0.82;;
48207;SDS011;33997;53.278;9.708;2023-08-01T12:31:30;2.05;;;0.80;;
48207;SDS011;33997;53.278;9.708;2023-08-01T12:33:56;1.92;;;0.60;;
48207;SDS011;33997;53.278;9.708;2023-08-01T12:36:22;1.63;;;0.60;;
48207;SDS011;33997;53.278;9.708;2023-08-01T12:38:47;2.50;;;0.80;;
48207;SDS011;33997;53.278;9.708;2023-08-01T12:41:13;3.33;;;0.60;;
48207;SDS011;33997;53.278;9.708;2023-08-01T12:43:38;2.30;;;0.57;;
48207;SDS011;33997;53.278;9.708;2023-08-01T12:46:04;0.93;;;0.50;;
48207;SDS011;33997;53.278;9.708;2023-08-01T12:48:30;2.33;;;0.60;;
48207;SDS011;33997;53.278;9.708;2023-08-01T12:50:55;1.90;;;0.68;;
48207;SDS011;33997;53.278;9.708;2023-08-01T12:53:21;1.80;;;0.70;;
48207;SDS011;33997;53.278;9.708;2023-08-01T12:55:48;1.08;;;0.55;;
48207;SDS011;33997;53.278;9.708;2023-08-01T12:58:15;2.47;;;0.77;;
48207;SDS011;33997;53.278;9.708;2023-08-01T13:00:41;1.42;;;0.65;;
48207;SDS011;33997;53.278;9.708;2023-08-01T13:03:08;2.10;;;0.77;;
48207;SDS011;33997;53.278;9.708;2023-08-01T13:05:34;1.35;;;0.63;;
48207;SDS011;33997;53.278;9.708;2023-08-01T13:08:00;1.73;;;0.70;;
48207;SDS011;33997;53.278;9.708;2023-08-01T13:10:25;2.05;;;0.80;;
48207;SDS011;33997;53.278;9.708;2023-08-01T13:12:54;4.18;;;0.77;;
48207;SDS011;33997;53.278;9.708;2023-08-01T13:15:19;2.60;;;0.88;;
48207;SDS011;33997;53.278;9.708;2023-08-01T13:17:45;2.25;;;0.75;;
48207;SDS011;33997;53.278;9.708;2023-08-01T13:20:10;3.17;;;0.88;;
48207;SDS011;33997;53.278;9.708;2023-08-01T13:22:36;3.40;;;0.95;;
48207;SDS011;33997;53.278;9.708;2023-08-01T13:25:02;1.35;;;0.88;;
48207;SDS011;33997;53.278;9.708;2023-08-01T13:27:28;1.50;;;0.75;;
48207;SDS011;33997;53.278;9.708;2023-08-01T13:29:54;4.22;;;1.08;;
48207;SDS011;33997;53.278;9.708;2023-08-01T13:32:19;2.45;;;1.20;;
48207;SDS011;33997;53.278;9.708;2023-08-01T13:34:45;2.88;;;1.13;;
48207;SDS011;33997;53.278;9.708;2023-08-01T13:37:11;5.25;;;1.10;;
48207;SDS011;33997;53.278;9.708;2023-08-01T13:39:37;3.22;;;0.95;;
48207;SDS011;33997;53.278;9.708;2023-08-01T13:42:03;1.85;;;1.00;;
48207;SDS011;33997;53.278;9.708;2023-08-01T13:44:28;1.83;;;0.55;;
48207;SDS011;33997;53.278;9.708;2023-08-01T13:46:54;1.98;;;0.65;;
48207;SDS011;33997;53.278;9.708;2023-08-01T13:49:19;2.05;;;0.50;;
48207;SDS011;33997;53.278;9.708;2023-08-01T13:51:45;0.45;;;0.40;;
48207;SDS011;33997;53.278;9.708;2023-08-01T13:54:10;1.38;;;0.43;;
48207;SDS011;33997;53.278;9.708;2023-08-01T13:56:36;3.10;;;0.57;;
48207;SDS011;33997;53.278;9.708;2023-08-01T13:59:01;1.83;;;0.40;;
48207;SDS011;33997;53.278;9.708;2023-08-01T14:01:27;2.47;;;0.77;;
48207;SDS011;33997;53.278;9.708;2023-08-01T14:03:52;5.93;;;0.73;;
48207;SDS011;33997;53.278;9.708;2023-08-01T14:06:18;2.85;;;0.75;;
48207;SDS011;33997;53.278;9.708;2023-08-01T14:08:43;2.20;;;0.47;;
48207;SDS011;33997;53.278;9.708;2023-08-01T14:11:09;1.55;;;0.50;;
48207;SDS011;33997;53.278;9.708;2023-08-01T14:13:35;3.20;;;0.45;;
48207;SDS011;33997;53.278;9.708;2023-08-01T14:16:01;2.80;;;0.75;;
48207;SDS011;33997;53.278;9.708;2023-08-01T14:18:27;2.15;;;0.70;;
48207;SDS011;33997;53.278;9.708;2023-08-01T14:20:53;3.25;;;0.88;;
48207;SDS011;33997;53.278;9.708;2023-08-01T14:23:19;2.05;;;0.68;;
48207;SDS011;33997;53.278;9.708;2023-08-01T14:25:45;3.90;;;0.80;;
48207;SDS011;33997;53.278;9.708;2023-08-01T14:28:10;3.63;;;1.00;;
48207;SDS011;33997;53.278;9.708;2023-08-01T14:30:36;5.03;;;0.90;;
48207;SDS011;33997;53.278;9.708;2023-08-01T14:33:07;3.08;;;1.13;;